sensor_id;sensor_type;location;lat;lon;timestamp;pressure;altitude;pressure_sealevel;temperature
20092;BMP180;10205;49.678;6.560;2023-05-19T00:00:07;100640.00;;;19.20
20092;BMP180;10205;49.678;6.560;2023-05-19T00:02:35;100633.00;;;19.20
20092;BMP180;10205;49.678;6.560;2023-05-19T00:05:05;100635.00;;;19.10
20092;BMP180;10205;49.678;6.560;2023-05-19T00:07:37;100632.00;;;19.10
20092;BMP180;10205;49.678;6.560;2023-05-19T00:10:06;100634.00;;;19.00
20092;BMP180;10205;49.678;6.560;2023-05-19T00:12:34;100630.00;;;19.00
20092;BMP180;10205;49.678;6.560;2023-05-19T00:15:03;100630.00;;;18.90
20092;BMP180;10205;49.678;6.560;2023-05-19T00:17:30;100630.00;;;18.90
20092;BMP180;10205;49.678;6.560;2023-05-19T00:19:59;100632.00;;;18.90
20092;BMP180;10205;49.678;6.560;2023-05-19T00:22:26;100632.00;;;18.80
20092;BMP180;10205;49.678;6.560;2023-05-19T00:24:55;100634.00;;;18.70
20092;BMP180;10205;49.678;6.560;2023-05-19T00:27:22;100625.00;;;18.70
20092;BMP180;10205;49.678;6.560;2023-05-19T00:29:49;100631.00;;;18.60
20092;BMP180;10205;49.678;6.560;2023-05-19T00:32:16;100631.00;;;18.60
20092;BMP180;10205;49.678;6.560;2023-05-19T00:34:42;100639.00;;;18.60
20092;BMP180;10205;49.678;6.560;2023-05-19T00:37:10;100637.00;;;18.50
20092;BMP180;10205;49.678;6.560;2023-05-19T00:39:37;100631.00;;;18.50
20092;BMP180;10205;49.678;6.560;2023-05-19T00:42:05;100638.00;;;18.40
20092;BMP180;10205;49.678;6.560;2023-05-19T00:44:33;100630.00;;;18.40
20092;BMP180;10205;49.678;6.560;2023-05-19T00:47:01;100634.00;;;18.30
20092;BMP180;10205;49.678;6.560;2023-05-19T00:49:28;100636.00;;;18.30
20092;BMP180;10205;49.678;6.560;2023-05-19T00:51:55;100632.00;;;18.20
20092;BMP180;10205;49.678;6.560;2023-05-19T00:54:23;100634.00;;;18.20
20092;BMP180;10205;49.678;6.560;2023-05-19T00:56:50;100628.00;;;18.10
20092;BMP180;10205;49.678;6.560;2023-05-19T00:59:19;100626.00;;;18.10
20092;BMP180;10205;49.678;6.560;2023-05-19T01:01:47;100622.00;;;18.00
20092;BMP180;10205;49.678;6.560;2023-05-19T01:04:14;100623.00;;;18.00
20092;BMP180;10205;49.678;6.560;2023-05-19T01:06:42;100623.00;;;17.90
20092;BMP180;10205;49.678;6.560;2023-05-19T01:09:09;100624.00;;;17.90
20092;BMP180;10205;49.678;6.560;2023-05-19T01:11:36;100627.00;;;17.80
20092;BMP180;10205;49.678;6.560;2023-05-19T01:14:03;100628.00;;;17.80
20092;BMP180;10205;49.678;6.560;2023-05-19T01:16:39;100618.00;;;17.80
20092;BMP180;10205;49.678;6.560;2023-05-19T01:19:30;100620.00;;;17.70
20092;BMP180;10205;49.678;6.560;2023-05-19T01:22:21;100626.00;;;17.60
20092;BMP180;10205;49.678;6.560;2023-05-19T01:25:43;100633.00;;;17.60
20092;BMP180;10205;49.678;6.560;2023-05-19T01:28:31;100625.00;;;17.50
20092;BMP180;10205;49.678;6.560;2023-05-19T01:31:09;100617.00;;;17.50
20092;BMP180;10205;49.678;6.560;2023-05-19T01:33:38;100626.00;;;17.40
20092;BMP180;10205;49.678;6.560;2023-05-19T01:36:07;100620.00;;;17.40
20092;BMP180;10205;49.678;6.560;2023-05-19T01:38:37;100618.00;;;17.30
20092;BMP180;10205;49.678;6.560;2023-05-19T01:41:07;100614.00;;;17.30
20092;BMP180;10205;49.678;6.560;2023-05-19T01:43:35;100615.00;;;17.20
20092;BMP180;10205;49.678;6.560;2023-05-19T01:46:03;100613.00;;;17.20
20092;BMP180;10205;49.678;6.560;2023-05-19T01:48:32;100609.00;;;17.20
20092;BMP180;10205;49.678;6.560;2023-05-19T01:51:00;100606.00;;;17.10
20092;BMP180;10205;49.678;6.560;2023-05-19T01:53:27;100614.00;;;17.10
20092;BMP180;10205;49.678;6.560;2023-05-19T01:55:56;100617.00;;;17.10
20092;BMP180;10205;49.678;6.560;2023-05-19T01:58:37;100613.00;;;17.00
20092;BMP180;10205;49.678;6.560;2023-05-19T02:01:20;100610.00;;;17.00
20092;BMP180;10205;49.678;6.560;2023-05-19T02:04:11;100616.00;;;16.90
20092;BMP180;10205;49.678;6.560;2023-05-19T02:06:44;100622.00;;;16.90
20092;BMP180;10205;49.678;6.560;2023-05-19T02:09:19;100617.00;;;16.80
20092;BMP180;10205;49.678;6.560;2023-05-19T02:11:54;100614.00;;;16.80
20092;BMP180;10205;49.678;6.560;2023-05-19T02:14:30;100626.00;;;16.70
20092;BMP180;10205;49.678;6.560;2023-05-19T02:17:01;100622.00;;;16.70
20092;BMP180;10205;49.678;6.560;2023-05-19T02:19:35;100617.00;;;16.70
20092;BMP180;10205;49.678;6.560;2023-05-19T02:22:02;100631.00;;;16.60
20092;BMP180;10205;49.678;6.560;2023-05-19T02:24:29;100623.00;;;16.60
20092;BMP180;10205;49.678;6.560;2023-05-19T02:26:56;100623.00;;;16.50
20092;BMP180;10205;49.678;6.560;2023-05-19T02:29:24;100622.00;;;16.50
20092;BMP180;10205;49.678;6.560;2023-05-19T02:31:51;100627.00;;;16.50
20092;BMP180;10205;49.678;6.560;2023-05-19T02:34:18;100625.00;;;16.40
20092;BMP180;10205;49.678;6.560;2023-05-19T02:36:46;100638.00;;;16.40
20092;BMP180;10205;49.678;6.560;2023-05-19T02:39:14;100627.00;;;16.40
20092;BMP180;10205;49.678;6.560;2023-05-19T02:41:41;100614.00;;;16.30
20092;BMP180;10205;49.678;6.560;2023-05-19T02:44:09;100623.00;;;16.30
20092;BMP180;10205;49.678;6.560;2023-05-19T02:46:36;100620.00;;;16.30
20092;BMP180;10205;49.678;6.560;2023-05-19T02:49:03;100613.00;;;16.20
20092;BMP180;10205;49.678;6.560;2023-05-19T02:51:30;100619.00;;;16.20
20092;BMP180;10205;49.678;6.560;2023-05-19T02:53:58;100621.00;;;16.20
20092;BMP180;10205;49.678;6.560;2023-05-19T02:56:25;100621.00;;;16.10
20092;BMP180;10205;49.678;6.560;2023-05-19T02:58:52;100612.00;;;16.10
20092;BMP180;10205;49.678;6.560;2023-05-19T03:01:22;100613.00;;;16.00
20092;BMP180;10205;49.678;6.560;2023-05-19T03:03:49;100613.00;;;16.00
20092;BMP180;10205;49.678;6.560;2023-05-19T03:06:16;100604.00;;;16.00
20092;BMP180;10205;49.678;6.560;2023-05-19T03:08:43;100599.00;;;15.90
20092;BMP180;10205;49.678;6.560;2023-05-19T03:11:11;100608.00;;;15.90
20092;BMP180;10205;49.678;6.560;2023-05-19T03:13:40;100613.00;;;15.90
20092;BMP180;10205;49.678;6.560;2023-05-19T03:16:07;100613.00;;;15.80
20092;BMP180;10205;49.678;6.560;2023-05-19T03:18:34;100613.00;;;15.80
20092;BMP180;10205;49.678;6.560;2023-05-19T03:21:02;100602.00;;;15.80
20092;BMP180;10205;49.678;6.560;2023-05-19T03:23:29;100608.00;;;15.70
20092;BMP180;10205;49.678;6.560;2023-05-19T03:25:56;100608.00;;;15.70
20092;BMP180;10205;49.678;6.560;2023-05-19T03:28:24;100607.00;;;15.60
20092;BMP180;10205;49.678;6.560;2023-05-19T03:30:51;100613.00;;;15.60
20092;BMP180;10205;49.678;6.560;2023-05-19T03:33:18;100616.00;;;15.60
20092;BMP180;10205;49.678;6.560;2023-05-19T03:35:46;100615.00;;;15.50
20092;BMP180;10205;49.678;6.560;2023-05-19T03:38:13;100621.00;;;15.50
20092;BMP180;10205;49.678;6.560;2023-05-19T03:40:40;100611.00;;;15.50
20092;BMP180;10205;49.678;6.560;2023-05-19T03:43:07;100610.00;;;15.40
20092;BMP180;10205;49.678;6.560;2023-05-19T03:45:35;100633.00;;;15.40
20092;BMP180;10205;49.678;6.560;2023-05-19T03:48:03;100617.00;;;15.40
20092;BMP180;10205;49.678;6.560;2023-05-19T03:50:30;100619.00;;;15.40
20092;BMP180;10205;49.678;6.560;2023-05-19T03:52:58;100621.00;;;15.30
20092;BMP180;10205;49.678;6.560;2023-05-19T03:55:25;100629.00;;;15.30
20092;BMP180;10205;49.678;6.560;2023-05-19T03:57:54;100637.00;;;15.30
20092;BMP180;10205;49.678;6.560;2023-05-19T04:00:21;100643.00;;;15.20
20092;BMP180;10205;49.678;6.560;2023-05-19T04:02:50;100633.00;;;15.20
20092;BMP180;10205;49.678;6.560;2023-05-19T04:05:17;100640.00;;;15.20
20092;BMP180;10205;49.678;6.560;2023-05-19T04:07:44;100637.00;;;15.10
20092;BMP180;10205;49.678;6.560;2023-05-19T04:10:12;100636.00;;;15.10
20092;BMP180;10205;49.678;6.560;2023-05-19T04:12:39;100634.00;;;15.10
20092;BMP180;10205;49.678;6.560;2023-05-19T04:15:07;100635.00;;;15.00
20092;BMP180;10205;49.678;6.560;2023-05-19T04:17:36;100627.00;;;15.00
20092;BMP180;10205;49.678;6.560;2023-05-19T04:20:06;100624.00;;;15.00
20092;BMP180;10205;49.678;6.560;2023-05-19T04:22:34;100630.00;;;14.90
20092;BMP180;10205;49.678;6.560;2023-05-19T04:25:01;100618.00;;;14.90
20092;BMP180;10205;49.678;6.560;2023-05-19T04:27:29;100618.00;;;14.90
20092;BMP180;10205;49.678;6.560;2023-05-19T04:29:56;100631.00;;;14.90
20092;BMP180;10205;49.678;6.560;2023-05-19T04:32:24;100623.00;;;14.80
20092;BMP180;10205;49.678;6.560;2023-05-19T04:34:51;100623.00;;;14.80
20092;BMP180;10205;49.678;6.560;2023-05-19T04:37:19;100624.00;;;14.80
20092;BMP180;10205;49.678;6.560;2023-05-19T04:39:46;100632.00;;;14.80
20092;BMP180;10205;49.678;6.560;2023-05-19T04:42:13;100636.00;;;14.70
20092;BMP180;10205;49.678;6.560;2023-05-19T04:44:43;100639.00;;;14.70
20092;BMP180;10205;49.678;6.560;2023-05-19T04:47:10;100634.00;;;14.70
20092;BMP180;10205;49.678;6.560;2023-05-19T04:49:39;100633.00;;;14.70
20092;BMP180;10205;49.678;6.560;2023-05-19T04:52:07;100643.00;;;14.60
20092;BMP180;10205;49.678;6.560;2023-05-19T04:54:38;100634.00;;;14.60
20092;BMP180;10205;49.678;6.560;2023-05-19T04:57:06;100636.00;;;14.60
20092;BMP180;10205;49.678;6.560;2023-05-19T04:59:35;100632.00;;;14.60
20092;BMP180;10205;49.678;6.560;2023-05-19T05:02:02;100637.00;;;14.50
20092;BMP180;10205;49.678;6.560;2023-05-19T05:04:29;100629.00;;;14.50
20092;BMP180;10205;49.678;6.560;2023-05-19T05:06:57;100630.00;;;14.50
20092;BMP180;10205;49.678;6.560;2023-05-19T05:09:24;100625.00;;;14.50
20092;BMP180;10205;49.678;6.560;2023-05-19T05:11:53;100623.00;;;14.40
20092;BMP180;10205;49.678;6.560;2023-05-19T05:14:21;100623.00;;;14.40
20092;BMP180;10205;49.678;6.560;2023-05-19T05:16:49;100629.00;;;14.40
20092;BMP180;10205;49.678;6.560;2023-05-19T05:19:17;100637.00;;;14.40
20092;BMP180;10205;49.678;6.560;2023-05-19T05:21:47;100620.00;;;14.40
20092;BMP180;10205;49.678;6.560;2023-05-19T05:24:15;100624.00;;;14.30
20092;BMP180;10205;49.678;6.560;2023-05-19T05:26:43;100621.00;;;14.30
20092;BMP180;10205;49.678;6.560;2023-05-19T05:29:12;100624.00;;;14.30
20092;BMP180;10205;49.678;6.560;2023-05-19T05:31:39;100620.00;;;14.20
20092;BMP180;10205;49.678;6.560;2023-05-19T05:34:06;100618.00;;;14.20
20092;BMP180;10205;49.678;6.560;2023-05-19T05:36:33;100624.00;;;14.20
20092;BMP180;10205;49.678;6.560;2023-05-19T05:39:04;100617.00;;;14.10
20092;BMP180;10205;49.678;6.560;2023-05-19T05:41:31;100613.00;;;14.10
20092;BMP180;10205;49.678;6.560;2023-05-19T05:44:00;100612.00;;;14.00
20092;BMP180;10205;49.678;6.560;2023-05-19T05:46:29;100618.00;;;14.00
20092;BMP180;10205;49.678;6.560;2023-05-19T05:48:57;100614.00;;;14.00
20092;BMP180;10205;49.678;6.560;2023-05-19T05:51:24;100613.00;;;14.00
20092;BMP180;10205;49.678;6.560;2023-05-19T05:53:54;100612.00;;;14.00
20092;BMP180;10205;49.678;6.560;2023-05-19T05:56:22;100610.00;;;14.00
20092;BMP180;10205;49.678;6.560;2023-05-19T05:58:49;100620.00;;;14.00
20092;BMP180;10205;49.678;6.560;2023-05-19T06:01:16;100599.00;;;13.90
20092;BMP180;10205;49.678;6.560;2023-05-19T06:03:45;100609.00;;;13.90
20092;BMP180;10205;49.678;6.560;2023-05-19T06:06:12;100615.00;;;13.90
20092;BMP180;10205;49.678;6.560;2023-05-19T06:08:39;100616.00;;;13.90
20092;BMP180;10205;49.678;6.560;2023-05-19T06:11:07;100609.00;;;13.90
20092;BMP180;10205;49.678;6.560;2023-05-19T06:13:34;100598.00;;;13.90
20092;BMP180;10205;49.678;6.560;2023-05-19T06:16:01;100603.00;;;13.90
20092;BMP180;10205;49.678;6.560;2023-05-19T06:18:29;100594.00;;;14.00
20092;BMP180;10205;49.678;6.560;2023-05-19T06:20:57;100603.00;;;14.00
20092;BMP180;10205;49.678;6.560;2023-05-19T06:23:24;100598.00;;;14.00
20092;BMP180;10205;49.678;6.560;2023-05-19T06:25:53;100598.00;;;14.10
20092;BMP180;10205;49.678;6.560;2023-05-19T06:28:20;100600.00;;;14.10
20092;BMP180;10205;49.678;6.560;2023-05-19T06:30:47;100597.00;;;14.10
20092;BMP180;10205;49.678;6.560;2023-05-19T06:33:14;100597.00;;;14.20
20092;BMP180;10205;49.678;6.560;2023-05-19T06:35:41;100597.00;;;14.20
20092;BMP180;10205;49.678;6.560;2023-05-19T06:38:10;100593.00;;;14.20
20092;BMP180;10205;49.678;6.560;2023-05-19T06:40:37;100589.00;;;14.30
20092;BMP180;10205;49.678;6.560;2023-05-19T06:43:04;100573.00;;;14.30
20092;BMP180;10205;49.678;6.560;2023-05-19T06:45:34;100582.00;;;14.30
20092;BMP180;10205;49.678;6.560;2023-05-19T06:48:03;100581.00;;;14.40
20092;BMP180;10205;49.678;6.560;2023-05-19T06:50:30;100579.00;;;14.40
20092;BMP180;10205;49.678;6.560;2023-05-19T06:52:57;100589.00;;;14.40
20092;BMP180;10205;49.678;6.560;2023-05-19T06:55:25;100586.00;;;14.50
20092;BMP180;10205;49.678;6.560;2023-05-19T06:57:52;100583.00;;;14.60
20092;BMP180;10205;49.678;6.560;2023-05-19T07:00:19;100586.00;;;14.60
20092;BMP180;10205;49.678;6.560;2023-05-19T07:02:46;100590.00;;;14.70
20092;BMP180;10205;49.678;6.560;2023-05-19T07:05:13;100594.00;;;14.70
20092;BMP180;10205;49.678;6.560;2023-05-19T07:07:40;100601.00;;;14.80
20092;BMP180;10205;49.678;6.560;2023-05-19T07:10:08;100594.00;;;14.80
20092;BMP180;10205;49.678;6.560;2023-05-19T07:12:37;100615.00;;;14.90
20092;BMP180;10205;49.678;6.560;2023-05-19T07:15:05;100591.00;;;15.00
20092;BMP180;10205;49.678;6.560;2023-05-19T07:17:32;100596.00;;;15.00
20092;BMP180;10205;49.678;6.560;2023-05-19T07:20:00;100591.00;;;15.10
20092;BMP180;10205;49.678;6.560;2023-05-19T07:22:27;100592.00;;;15.10
20092;BMP180;10205;49.678;6.560;2023-05-19T07:24:54;100594.00;;;15.20
20092;BMP180;10205;49.678;6.560;2023-05-19T07:27:21;100591.00;;;15.30
20092;BMP180;10205;49.678;6.560;2023-05-19T07:29:50;100592.00;;;15.30
20092;BMP180;10205;49.678;6.560;2023-05-19T07:32:17;100595.00;;;15.40
20092;BMP180;10205;49.678;6.560;2023-05-19T07:34:44;100601.00;;;15.50
20092;BMP180;10205;49.678;6.560;2023-05-19T07:37:11;100572.00;;;15.60
20092;BMP180;10205;49.678;6.560;2023-05-19T07:39:38;100578.00;;;15.60
20092;BMP180;10205;49.678;6.560;2023-05-19T07:42:05;100568.00;;;15.70
20092;BMP180;10205;49.678;6.560;2023-05-19T07:44:32;100588.00;;;15.80
20092;BMP180;10205;49.678;6.560;2023-05-19T07:47:01;100574.00;;;15.80
20092;BMP180;10205;49.678;6.560;2023-05-19T07:49:28;100568.00;;;15.90
20092;BMP180;10205;49.678;6.560;2023-05-19T07:51:55;100561.00;;;16.00
20092;BMP180;10205;49.678;6.560;2023-05-19T07:54:22;100565.00;;;16.10
20092;BMP180;10205;49.678;6.560;2023-05-19T07:56:51;100558.00;;;16.20
20092;BMP180;10205;49.678;6.560;2023-05-19T07:59:18;100562.00;;;16.30
20092;BMP180;10205;49.678;6.560;2023-05-19T08:01:45;100569.00;;;16.30
20092;BMP180;10205;49.678;6.560;2023-05-19T08:04:14;100565.00;;;16.40
20092;BMP180;10205;49.678;6.560;2023-05-19T08:06:43;100561.00;;;16.50
20092;BMP180;10205;49.678;6.560;2023-05-19T08:09:11;100566.00;;;16.50
20092;BMP180;10205;49.678;6.560;2023-05-19T08:11:38;100559.00;;;16.60
20092;BMP180;10205;49.678;6.560;2023-05-19T08:14:05;100565.00;;;16.70
20092;BMP180;10205;49.678;6.560;2023-05-19T08:16:32;100546.00;;;16.80
20092;BMP180;10205;49.678;6.560;2023-05-19T08:18:59;100560.00;;;16.90
20092;BMP180;10205;49.678;6.560;2023-05-19T08:21:28;100545.00;;;17.00
20092;BMP180;10205;49.678;6.560;2023-05-19T08:23:55;100538.00;;;17.10
20092;BMP180;10205;49.678;6.560;2023-05-19T08:26:22;100543.00;;;17.20
20092;BMP180;10205;49.678;6.560;2023-05-19T08:28:49;100542.00;;;17.30
20092;BMP180;10205;49.678;6.560;2023-05-19T08:31:17;100539.00;;;17.40
20092;BMP180;10205;49.678;6.560;2023-05-19T08:33:44;100538.00;;;17.50
20092;BMP180;10205;49.678;6.560;2023-05-19T08:36:11;100529.00;;;17.60
20092;BMP180;10205;49.678;6.560;2023-05-19T08:38:40;100534.00;;;17.70
20092;BMP180;10205;49.678;6.560;2023-05-19T08:41:07;100522.00;;;17.80
20092;BMP180;10205;49.678;6.560;2023-05-19T08:43:34;100520.00;;;17.90
20092;BMP180;10205;49.678;6.560;2023-05-19T08:46:03;100523.00;;;18.00
20092;BMP180;10205;49.678;6.560;2023-05-19T08:48:34;100521.00;;;18.10
20092;BMP180;10205;49.678;6.560;2023-05-19T08:51:12;100513.00;;;18.20
20092;BMP180;10205;49.678;6.560;2023-05-19T08:53:48;100516.00;;;18.20
20092;BMP180;10205;49.678;6.560;2023-05-19T08:56:20;100518.00;;;18.30
20092;BMP180;10205;49.678;6.560;2023-05-19T08:58:50;100510.00;;;18.40
20092;BMP180;10205;49.678;6.560;2023-05-19T09:01:19;100518.00;;;18.50
20092;BMP180;10205;49.678;6.560;2023-05-19T09:03:47;100502.00;;;18.60
20092;BMP180;10205;49.678;6.560;2023-05-19T09:06:15;100502.00;;;18.70
20092;BMP180;10205;49.678;6.560;2023-05-19T09:08:43;100496.00;;;18.80
20092;BMP180;10205;49.678;6.560;2023-05-19T09:11:12;100495.00;;;18.90
20092;BMP180;10205;49.678;6.560;2023-05-19T09:13:39;100490.00;;;19.00
20092;BMP180;10205;49.678;6.560;2023-05-19T09:16:08;100493.00;;;19.10
20092;BMP180;10205;49.678;6.560;2023-05-19T09:18:38;100500.00;;;19.10
20092;BMP180;10205;49.678;6.560;2023-05-19T09:21:05;100491.00;;;19.20
20092;BMP180;10205;49.678;6.560;2023-05-19T09:23:32;100487.00;;;19.30
20092;BMP180;10205;49.678;6.560;2023-05-19T09:26:03;100483.00;;;19.40
20092;BMP180;10205;49.678;6.560;2023-05-19T09:28:34;100479.00;;;19.50
20092;BMP180;10205;49.678;6.560;2023-05-19T09:31:03;100482.00;;;19.60
20092;BMP180;10205;49.678;6.560;2023-05-19T09:33:34;100478.00;;;19.70
20092;BMP180;10205;49.678;6.560;2023-05-19T09:36:02;100474.00;;;19.80
20092;BMP180;10205;49.678;6.560;2023-05-19T09:38:30;100476.00;;;19.90
20092;BMP180;10205;49.678;6.560;2023-05-19T09:40:59;100478.00;;;20.00
20092;BMP180;10205;49.678;6.560;2023-05-19T09:43:29;100480.00;;;20.10
20092;BMP180;10205;49.678;6.560;2023-05-19T09:46:03;100478.00;;;20.20
20092;BMP180;10205;49.678;6.560;2023-05-19T09:48:31;100468.00;;;20.30
20092;BMP180;10205;49.678;6.560;2023-05-19T09:51:00;100466.00;;;20.40
20092;BMP180;10205;49.678;6.560;2023-05-19T09:53:29;100466.00;;;20.50
20092;BMP180;10205;49.678;6.560;2023-05-19T09:55:57;100474.00;;;20.60
20092;BMP180;10205;49.678;6.560;2023-05-19T09:58:25;100461.00;;;20.70
20092;BMP180;10205;49.678;6.560;2023-05-19T10:00:55;100452.00;;;20.80
20092;BMP180;10205;49.678;6.560;2023-05-19T10:03:22;100453.00;;;20.90
20092;BMP180;10205;49.678;6.560;2023-05-19T10:05:52;100447.00;;;21.00
20092;BMP180;10205;49.678;6.560;2023-05-19T10:08:19;100445.00;;;21.10
20092;BMP180;10205;49.678;6.560;2023-05-19T10:10:48;100448.00;;;21.20
20092;BMP180;10205;49.678;6.560;2023-05-19T10:13:16;100444.00;;;21.30
20092;BMP180;10205;49.678;6.560;2023-05-19T10:15:45;100450.00;;;21.40
20092;BMP180;10205;49.678;6.560;2023-05-19T10:18:16;100447.00;;;21.50
20092;BMP180;10205;49.678;6.560;2023-05-19T10:20:44;100434.00;;;21.50
20092;BMP180;10205;49.678;6.560;2023-05-19T10:23:12;100433.00;;;21.60
20092;BMP180;10205;49.678;6.560;2023-05-19T10:25:41;100440.00;;;21.70
20092;BMP180;10205;49.678;6.560;2023-05-19T10:28:15;100432.00;;;21.80
20092;BMP180;10205;49.678;6.560;2023-05-19T10:30:46;100431.00;;;21.90
20092;BMP180;10205;49.678;6.560;2023-05-19T10:33:19;100431.00;;;22.00
20092;BMP180;10205;49.678;6.560;2023-05-19T10:36:08;100426.00;;;22.10
20092;BMP180;10205;49.678;6.560;2023-05-19T10:38:44;100426.00;;;22.20
20092;BMP180;10205;49.678;6.560;2023-05-19T10:41:23;100411.00;;;22.20
20092;BMP180;10205;49.678;6.560;2023-05-19T10:44:02;100421.00;;;22.40
20092;BMP180;10205;49.678;6.560;2023-05-19T10:46:34;100424.00;;;22.40
20092;BMP180;10205;49.678;6.560;2023-05-19T10:49:03;100420.00;;;22.50
20092;BMP180;10205;49.678;6.560;2023-05-19T10:51:33;100413.00;;;22.60
20092;BMP180;10205;49.678;6.560;2023-05-19T10:54:02;100415.00;;;22.70
20092;BMP180;10205;49.678;6.560;2023-05-19T10:56:32;100417.00;;;22.70
20092;BMP180;10205;49.678;6.560;2023-05-19T10:59:01;100415.00;;;22.80
20092;BMP180;10205;49.678;6.560;2023-05-19T11:01:31;100423.00;;;22.90
20092;BMP180;10205;49.678;6.560;2023-05-19T11:04:06;100427.00;;;23.00
20092;BMP180;10205;49.678;6.560;2023-05-19T11:06:37;100414.00;;;23.10
20092;BMP180;10205;49.678;6.560;2023-05-19T11:09:13;100410.00;;;23.20
20092;BMP180;10205;49.678;6.560;2023-05-19T11:11:46;100415.00;;;23.30
20092;BMP180;10205;49.678;6.560;2023-05-19T11:14:16;100400.00;;;23.40
20092;BMP180;10205;49.678;6.560;2023-05-19T11:16:47;100406.00;;;23.40
20092;BMP180;10205;49.678;6.560;2023-05-19T11:19:24;100408.00;;;23.50
20092;BMP180;10205;49.678;6.560;2023-05-19T11:21:52;100410.00;;;23.60
20092;BMP180;10205;49.678;6.560;2023-05-19T11:24:33;100397.00;;;23.70
20092;BMP180;10205;49.678;6.560;2023-05-19T11:27:20;100393.00;;;23.80
20092;BMP180;10205;49.678;6.560;2023-05-19T11:29:48;100399.00;;;23.80
20092;BMP180;10205;49.678;6.560;2023-05-19T11:32:18;100391.00;;;23.90
20092;BMP180;10205;49.678;6.560;2023-05-19T11:34:48;100385.00;;;24.00
20092;BMP180;10205;49.678;6.560;2023-05-19T11:37:15;100390.00;;;24.10
20092;BMP180;10205;49.678;6.560;2023-05-19T11:39:44;100374.00;;;24.10
20092;BMP180;10205;49.678;6.560;2023-05-19T11:42:11;100373.00;;;24.20
20092;BMP180;10205;49.678;6.560;2023-05-19T11:44:39;100374.00;;;24.20
20092;BMP180;10205;49.678;6.560;2023-05-19T11:47:08;100374.00;;;24.30
20092;BMP180;10205;49.678;6.560;2023-05-19T11:49:35;100385.00;;;24.40
20092;BMP180;10205;49.678;6.560;2023-05-19T11:52:04;100383.00;;;24.40
20092;BMP180;10205;49.678;6.560;2023-05-19T11:54:32;100368.00;;;24.50
20092;BMP180;10205;49.678;6.560;2023-05-19T11:57:02;100353.00;;;24.50
20092;BMP180;10205;49.678;6.560;2023-05-19T11:59:31;100361.00;;;24.60
20092;BMP180;10205;49.678;6.560;2023-05-19T12:02:14;100359.00;;;24.60
20092;BMP180;10205;49.678;6.560;2023-05-19T12:04:42;100360.00;;;24.70
20092;BMP180;10205;49.678;6.560;2023-05-19T12:07:12;100360.00;;;24.80
20092;BMP180;10205;49.678;6.560;2023-05-19T12:09:42;100370.00;;;24.80
20092;BMP180;10205;49.678;6.560;2023-05-19T12:12:13;100360.00;;;24.90
20092;BMP180;10205;49.678;6.560;2023-05-19T12:14:41;100351.00;;;24.90
20092;BMP180;10205;49.678;6.560;2023-05-19T12:17:12;100362.00;;;25.00
20092;BMP180;10205;49.678;6.560;2023-05-19T12:19:40;100368.00;;;25.10
20092;BMP180;10205;49.678;6.560;2023-05-19T12:22:11;100376.00;;;25.20
20092;BMP180;10205;49.678;6.560;2023-05-19T12:24:39;100354.00;;;25.20
20092;BMP180;10205;49.678;6.560;2023-05-19T12:27:10;100348.00;;;25.30
20092;BMP180;10205;49.678;6.560;2023-05-19T12:29:39;100356.00;;;25.40
20092;BMP180;10205;49.678;6.560;2023-05-19T12:32:07;100349.00;;;25.40
20092;BMP180;10205;49.678;6.560;2023-05-19T12:34:35;100347.00;;;25.50
20092;BMP180;10205;49.678;6.560;2023-05-19T12:37:03;100342.00;;;25.60
20092;BMP180;10205;49.678;6.560;2023-05-19T12:39:32;100345.00;;;25.60
20092;BMP180;10205;49.678;6.560;2023-05-19T12:42:06;100334.00;;;25.70
20092;BMP180;10205;49.678;6.560;2023-05-19T12:44:36;100335.00;;;25.70
20092;BMP180;10205;49.678;6.560;2023-05-19T12:47:04;100333.00;;;25.80
20092;BMP180;10205;49.678;6.560;2023-05-19T12:49:32;100336.00;;;25.80
20092;BMP180;10205;49.678;6.560;2023-05-19T12:52:00;100333.00;;;25.90
20092;BMP180;10205;49.678;6.560;2023-05-19T12:54:33;100331.00;;;25.90
20092;BMP180;10205;49.678;6.560;2023-05-19T12:57:00;100330.00;;;25.90
20092;BMP180;10205;49.678;6.560;2023-05-19T12:59:27;100333.00;;;26.00
20092;BMP180;10205;49.678;6.560;2023-05-19T13:01:55;100340.00;;;26.00
20092;BMP180;10205;49.678;6.560;2023-05-19T13:04:22;100325.00;;;26.00
20092;BMP180;10205;49.678;6.560;2023-05-19T13:06:49;100332.00;;;26.00
20092;BMP180;10205;49.678;6.560;2023-05-19T13:09:16;100323.00;;;26.10
20092;BMP180;10205;49.678;6.560;2023-05-19T13:11:46;100331.00;;;26.10
20092;BMP180;10205;49.678;6.560;2023-05-19T13:14:16;100332.00;;;26.10
20092;BMP180;10205;49.678;6.560;2023-05-19T13:16:44;100326.00;;;26.20
20092;BMP180;10205;49.678;6.560;2023-05-19T13:19:13;100318.00;;;26.20
20092;BMP180;10205;49.678;6.560;2023-05-19T13:21:40;100317.00;;;26.20
20092;BMP180;10205;49.678;6.560;2023-05-19T13:24:08;100309.00;;;26.30
20092;BMP180;10205;49.678;6.560;2023-05-19T13:26:35;100324.00;;;26.30
20092;BMP180;10205;49.678;6.560;2023-05-19T13:29:03;100312.00;;;26.30
20092;BMP180;10205;49.678;6.560;2023-05-19T13:31:31;100307.00;;;26.40
20092;BMP180;10205;49.678;6.560;2023-05-19T13:33:58;100299.00;;;26.40
20092;BMP180;10205;49.678;6.560;2023-05-19T13:36:25;100306.00;;;26.40
20092;BMP180;10205;49.678;6.560;2023-05-19T13:38:53;100305.00;;;26.50
20092;BMP180;10205;49.678;6.560;2023-05-19T13:41:22;100310.00;;;26.50
20092;BMP180;10205;49.678;6.560;2023-05-19T13:43:51;100305.00;;;26.60
20092;BMP180;10205;49.678;6.560;2023-05-19T13:46:19;100307.00;;;26.60
20092;BMP180;10205;49.678;6.560;2023-05-19T13:48:46;100305.00;;;26.60
20092;BMP180;10205;49.678;6.560;2023-05-19T13:51:13;100300.00;;;26.70
20092;BMP180;10205;49.678;6.560;2023-05-19T13:53:40;100305.00;;;26.70
20092;BMP180;10205;49.678;6.560;2023-05-19T13:56:07;100315.00;;;26.70
20092;BMP180;10205;49.678;6.560;2023-05-19T13:58:34;100315.00;;;26.70
20092;BMP180;10205;49.678;6.560;2023-05-19T14:01:01;100315.00;;;26.80
20092;BMP180;10205;49.678;6.560;2023-05-19T14:03:30;100305.00;;;26.80
20092;BMP180;10205;49.678;6.560;2023-05-19T14:05:57;100299.00;;;26.80